Time;durP1;ratioP1;P1;durP2;ratioP2;P2;SDS_P1;SDS_P2;PMS_P1;PMS_P2;Temp;Humidity;BMP_temperature;BMP_pressure;BME280_temperature;BME280_humidity;BME280_pressure;Samples;Min_cycle;Max_cycle;Signal;HPM_P1;HPM_P2
2022/06/25 00:00:23;;;;;;;5.90;1.90;;;;;;;;;;4837823;29;20522;-74
2022/06/25 00:02:48;;;;;;;10.20;1.95;;;;;;;;;;4834721;29;20418;-74
2022/06/25 00:05:29;;;;;;;5.22;1.70;;;;;;;;;;4832270;29;20117;-73
2022/06/25 00:07:59;;;;;;;4.30;1.80;;;;;;;;;;4837563;29;20121;-74
2022/06/25 00:10:25;;;;;;;5.07;1.90;;;;;;;;;;4840997;29;20042;-74
2022/06/25 00:12:51;;;;;;;7.10;1.85;;;;;;;;;;4845040;29;20123;-73
2022/06/25 00:15:17;;;;;;;7.90;1.85;;;;;;;;;;4837681;29;20514;-73
2022/06/25 00:17:43;;;;;;;10.57;2.20;;;;;;;;;;4839532;29;20428;-72
2022/06/25 00:20:09;;;;;;;6.63;1.90;;;;;;;;;;4836342;29;20557;-73
2022/06/25 00:22:36;;;;;;;6.57;1.60;;;;;;;;;;4841033;29;20026;-72
2022/06/25 00:25:01;;;;;;;6.95;1.83;;;;;;;;;;4839879;29;20046;-73
2022/06/25 00:27:27;;;;;;;12.13;2.13;;;;;;;;;;4832063;29;21519;-76
2022/06/25 00:29:52;;;;;;;5.65;2.08;;;;;;;;;;4834897;29;20034;-74
2022/06/25 00:32:18;;;;;;;9.55;2.10;;;;;;;;;;4840454;29;20094;-74
2022/06/25 00:34:44;;;;;;;7.65;2.10;;;;;;;;;;4842548;29;20398;-74
2022/06/25 00:37:09;;;;;;;8.55;2.03;;;;;;;;;;4843949;29;20038;-73
2022/06/25 00:39:36;;;;;;;6.97;2.10;;;;;;;;;;4842938;29;20061;-74
2022/06/25 00:42:01;;;;;;;7.07;1.70;;;;;;;;;;4842196;29;20105;-74
2022/06/25 00:44:30;;;;;;;7.68;1.50;;;;;;;;;;4837806;29;20833;-76
2022/06/25 00:46:56;;;;;;;2.83;2.00;;;;;;;;;;4842960;29;20034;-74
2022/06/25 00:49:22;;;;;;;3.40;1.60;;;;;;;;;;4840878;29;20050;-74
2022/06/25 00:51:50;;;;;;;5.10;1.63;;;;;;;;;;4841121;29;20052;-74
2022/06/25 00:54:17;;;;;;;4.63;1.65;;;;;;;;;;4845816;29;20041;-73
2022/06/25 00:56:52;;;;;;;2.92;1.42;;;;;;;;;;4844109;29;20101;-73
2022/06/25 00:59:27;;;;;;;4.97;1.70;;;;;;;;;;4842823;29;20091;-74
2022/06/25 01:01:53;;;;;;;6.75;1.90;;;;;;;;;;4837308;29;20086;-72
2022/06/25 01:04:20;;;;;;;11.75;2.20;;;;;;;;;;4842048;29;20045;-74
2022/06/25 01:06:45;;;;;;;8.70;1.90;;;;;;;;;;4840759;29;20081;-72
2022/06/25 01:09:11;;;;;;;3.28;1.90;;;;;;;;;;4840858;29;20073;-73
2022/06/25 01:11:37;;;;;;;4.05;1.90;;;;;;;;;;4843339;29;20331;-71
2022/06/25 01:14:10;;;;;;;3.58;1.77;;;;;;;;;;4839260;29;20287;-73
2022/06/25 01:16:36;;;;;;;5.10;1.70;;;;;;;;;;4822884;29;20114;-70
2022/06/25 01:19:10;;;;;;;6.43;2.20;;;;;;;;;;4831061;29;20030;-74
2022/06/25 01:21:36;;;;;;;3.85;1.80;;;;;;;;;;4839487;29;20042;-72
2022/06/25 01:24:02;;;;;;;2.88;2.13;;;;;;;;;;4840393;29;20046;-72
2022/06/25 01:26:28;;;;;;;10.77;1.90;;;;;;;;;;4848193;29;20060;-73
2022/06/25 01:28:54;;;;;;;3.67;1.88;;;;;;;;;;4839924;29;20112;-73
2022/06/25 01:31:19;;;;;;;2.45;1.83;;;;;;;;;;4846904;29;20042;-71
2022/06/25 01:33:44;;;;;;;4.32;2.22;;;;;;;;;;4845456;29;20486;-72
2022/06/25 01:36:10;;;;;;;3.42;2.08;;;;;;;;;;4828672;29;20134;-71
2022/06/25 01:38:35;;;;;;;6.15;2.03;;;;;;;;;;4846565;29;20455;-71
2022/06/25 01:41:01;;;;;;;5.68;2.10;;;;;;;;;;4844584;29;20034;-71
2022/06/25 01:43:26;;;;;;;5.40;1.80;;;;;;;;;;4845606;29;20041;-72
2022/06/25 01:45:52;;;;;;;11.77;2.42;;;;;;;;;;4842303;29;20041;-72
2022/06/25 01:48:17;;;;;;;5.88;2.05;;;;;;;;;;4847448;29;20078;-73
2022/06/25 01:50:43;;;;;;;4.13;2.30;;;;;;;;;;4841044;29;20072;-71
2022/06/25 01:53:09;;;;;;;3.95;2.20;;;;;;;;;;4838246;29;20041;-71
2022/06/25 01:55:34;;;;;;;11.05;2.40;;;;;;;;;;4841955;29;20500;-74
2022/06/25 01:58:00;;;;;;;2.63;1.90;;;;;;;;;;4841566;29;20524;-73
2022/06/25 02:00:28;;;;;;;5.13;2.55;;;;;;;;;;4837616;29;20101;-71
2022/06/25 02:02:54;;;;;;;6.63;1.98;;;;;;;;;;4843282;29;20809;-73
2022/06/25 02:05:56;;;;;;;2.38;2.17;;;;;;;;;;4840345;29;20025;-71
2022/06/25 02:08:10;;;;;;;5.13;1.90;;;;;;;;;;4843982;29;20361;-74
2022/06/25 02:10:35;;;;;;;8.13;2.40;;;;;;;;;;4840627;29;20029;-72
2022/06/25 02:13:01;;;;;;;4.28;2.00;;;;;;;;;;4843360;29;20402;-71
2022/06/25 02:15:26;;;;;;;7.32;1.83;;;;;;;;;;4840857;29;20046;-71
2022/06/25 02:17:51;;;;;;;4.75;2.17;;;;;;;;;;4840668;29;20034;-72
2022/06/25 02:20:17;;;;;;;4.88;2.15;;;;;;;;;;4845464;29;20439;-72
2022/06/25 02:22:43;;;;;;;3.30;2.03;;;;;;;;;;4838702;29;20038;-71
2022/06/25 02:25:08;;;;;;;5.13;2.30;;;;;;;;;;4837337;29;20042;-71
2022/06/25 02:27:34;;;;;;;4.30;2.17;;;;;;;;;;4841909;29;20465;-71
2022/06/25 02:30:00;;;;;;;6.07;2.40;;;;;;;;;;4837560;29;20238;-70
2022/06/25 02:32:25;;;;;;;4.93;2.30;;;;;;;;;;4847397;29;20124;-75
2022/06/25 02:34:51;;;;;;;5.30;2.20;;;;;;;;;;4842103;29;20026;-75
2022/06/25 02:37:16;;;;;;;8.25;2.33;;;;;;;;;;4831452;29;20037;-75
2022/06/25 02:39:41;;;;;;;4.53;2.55;;;;;;;;;;4842407;29;20065;-75
2022/06/25 02:42:07;;;;;;;7.53;2.30;;;;;;;;;;4847267;29;20034;-75
2022/06/25 02:44:32;;;;;;;3.97;2.38;;;;;;;;;;4842386;29;20057;-75
2022/06/25 02:46:58;;;;;;;5.75;2.40;;;;;;;;;;4844368;29;20043;-75
2022/06/25 02:49:23;;;;;;;5.45;1.88;;;;;;;;;;4843498;29;20044;-75
2022/06/25 02:51:48;;;;;;;5.07;2.60;;;;;;;;;;4844485;29;20042;-75
2022/06/25 02:54:14;;;;;;;3.60;2.10;;;;;;;;;;4842011;29;20046;-74
2022/06/25 02:59:27;;;;;;;4.72;2.08;;;;;;;;;;4847819;29;20033;-74
2022/06/25 03:01:55;;;;;;;4.47;2.00;;;;;;;;;;4842592;29;20038;-78
2022/06/25 03:04:22;;;;;;;3.85;2.10;;;;;;;;;;4836547;29;20125;-80
2022/06/25 03:06:48;;;;;;;5.95;2.17;;;;;;;;;;4824702;29;20033;-80
2022/06/25 03:09:13;;;;;;;9.88;2.50;;;;;;;;;;4839967;29;20136;-77
2022/06/25 03:11:38;;;;;;;4.25;2.30;;;;;;;;;;4842848;29;20406;-77
2022/06/25 03:14:04;;;;;;;5.18;2.60;;;;;;;;;;4843783;29;20029;-80
2022/06/25 03:16:31;;;;;;;5.55;2.20;;;;;;;;;;4844329;29;20084;-79
2022/06/25 03:18:57;;;;;;;3.80;2.08;;;;;;;;;;4838920;29;20065;-80
2022/06/25 03:21:22;;;;;;;5.88;1.98;;;;;;;;;;4841721;29;20038;-76
2022/06/25 03:23:48;;;;;;;6.85;2.38;;;;;;;;;;4838998;29;20056;-79
2022/06/25 03:26:13;;;;;;;3.88;2.10;;;;;;;;;;4843500;29;20034;-79
2022/06/25 03:28:39;;;;;;;4.93;2.33;;;;;;;;;;4823856;29;20113;-80
2022/06/25 03:31:04;;;;;;;3.85;2.30;;;;;;;;;;4845623;29;20042;-78
2022/06/25 03:33:30;;;;;;;2.25;2.08;;;;;;;;;;4841503;29;20045;-78
2022/06/25 03:35:55;;;;;;;7.88;2.65;;;;;;;;;;4823974;29;20110;-81
2022/06/25 03:38:21;;;;;;;4.57;2.20;;;;;;;;;;4847533;29;20038;-76
2022/06/25 03:40:46;;;;;;;5.55;2.78;;;;;;;;;;4828123;29;20116;-80
2022/06/25 03:43:12;;;;;;;6.55;2.13;;;;;;;;;;4839719;29;20041;-80
2022/06/25 03:45:38;;;;;;;6.47;2.33;;;;;;;;;;4842520;29;20386;-79
2022/06/25 03:48:04;;;;;;;3.78;2.78;;;;;;;;;;4845864;29;20482;-79
2022/06/25 03:50:29;;;;;;;4.68;2.40;;;;;;;;;;4846272;29;20063;-78
2022/06/25 03:52:55;;;;;;;3.67;2.20;;;;;;;;;;4844833;29;20025;-79
2022/06/25 03:55:20;;;;;;;8.95;2.30;;;;;;;;;;4844632;29;20038;-78
2022/06/25 03:57:46;;;;;;;8.10;2.60;;;;;;;;;;4842787;29;20042;-80
2022/06/25 04:00:12;;;;;;;2.40;2.20;;;;;;;;;;4846359;29;20046;-79
2022/06/25 04:02:37;;;;;;;5.18;2.28;;;;;;;;;;4847404;29;20053;-79
2022/06/25 04:05:03;;;;;;;8.20;2.53;;;;;;;;;;4845543;29;20458;-79
2022/06/25 04:07:29;;;;;;;5.13;2.25;;;;;;;;;;4841227;29;20058;-80
2022/06/25 04:09:56;;;;;;;4.70;2.53;;;;;;;;;;4826287;29;20045;-80
2022/06/25 04:12:21;;;;;;;3.40;2.05;;;;;;;;;;4846098;29;20033;-77
2022/06/25 04:14:46;;;;;;;5.63;2.50;;;;;;;;;;4840867;29;20038;-80
2022/06/25 04:17:12;;;;;;;3.88;2.17;;;;;;;;;;4842065;29;20467;-80
2022/06/25 04:19:41;;;;;;;4.72;2.10;;;;;;;;;;4842613;29;20034;-80
2022/06/25 04:22:10;;;;;;;4.32;2.38;;;;;;;;;;4838790;29;20428;-81
2022/06/25 04:24:37;;;;;;;3.22;2.50;;;;;;;;;;4827300;29;20038;-80
2022/06/25 04:27:03;;;;;;;3.95;2.30;;;;;;;;;;4840702;29;20141;-79
2022/06/25 04:29:30;;;;;;;3.85;2.53;;;;;;;;;;4843232;29;20494;-77
2022/06/25 04:31:55;;;;;;;7.20;2.40;;;;;;;;;;4844540;29;20034;-81
2022/06/25 04:34:21;;;;;;;7.47;2.33;;;;;;;;;;4841768;29;20447;-78
2022/06/25 04:36:46;;;;;;;7.15;2.10;;;;;;;;;;4841008;29;20446;-79
2022/06/25 04:39:12;;;;;;;5.68;2.85;;;;;;;;;;4846368;29;20052;-79
2022/06/25 04:41:37;;;;;;;6.38;2.60;;;;;;;;;;4845907;29;20540;-79
2022/06/25 04:44:03;;;;;;;8.70;2.80;;;;;;;;;;4834330;29;20030;-78
2022/06/25 04:46:31;;;;;;;8.85;2.88;;;;;;;;;;4846756;29;20045;-80
2022/06/25 04:48:57;;;;;;;7.43;2.70;;;;;;;;;;4848293;29;20045;-78
2022/06/25 04:51:22;;;;;;;2.70;2.40;;;;;;;;;;4833212;29;20410;-79
2022/06/25 04:53:57;;;;;;;6.70;2.83;;;;;;;;;;4850268;29;20108;-80
2022/06/25 04:56:27;;;;;;;9.52;2.65;;;;;;;;;;4846744;29;20117;-79
2022/06/25 04:58:53;;;;;;;8.30;2.90;;;;;;;;;;4847733;29;20038;-78
2022/06/25 05:01:19;;;;;;;5.68;3.20;;;;;;;;;;4845856;29;20061;-77
2022/06/25 05:03:44;;;;;;;5.60;3.20;;;;;;;;;;4846060;29;20077;-79
2022/06/25 05:06:10;;;;;;;9.63;3.38;;;;;;;;;;4849097;29;20849;-80
2022/06/25 05:08:36;;;;;;;4.47;3.47;;;;;;;;;;4846760;29;20072;-76
2022/06/25 05:11:01;;;;;;;6.45;3.45;;;;;;;;;;4845340;29;20380;-79
2022/06/25 05:13:27;;;;;;;8.13;3.63;;;;;;;;;;4847825;29;20046;-79
2022/06/25 05:15:52;;;;;;;6.13;3.88;;;;;;;;;;4843094;29;20037;-79
2022/06/25 05:18:18;;;;;;;6.10;4.05;;;;;;;;;;4843727;29;20030;-74
2022/06/25 05:20:44;;;;;;;9.10;3.90;;;;;;;;;;4844809;29;20114;-76
2022/06/25 05:23:11;;;;;;;9.75;3.92;;;;;;;;;;4844622;29;20124;-80
2022/06/25 05:25:37;;;;;;;5.55;3.05;;;;;;;;;;4844717;29;20486;-79
2022/06/25 05:28:03;;;;;;;8.45;3.55;;;;;;;;;;4847425;29;20049;-79
2022/06/25 05:30:29;;;;;;;5.40;3.40;;;;;;;;;;4828062;29;20050;-80
2022/06/25 05:32:54;;;;;;;7.32;3.60;;;;;;;;;;4842677;29;20074;-81
2022/06/25 05:35:20;;;;;;;10.60;3.63;;;;;;;;;;4848488;29;20497;-81
2022/06/25 05:37:46;;;;;;;14.25;3.78;;;;;;;;;;4842310;29;20090;-80
2022/06/25 05:40:11;;;;;;;7.78;3.70;;;;;;;;;;4846264;29;20049;-81
2022/06/25 05:42:37;;;;;;;8.77;4.28;;;;;;;;;;4845265;29;20049;-80
2022/06/25 05:45:03;;;;;;;7.13;3.92;;;;;;;;;;4826658;29;20042;-80
2022/06/25 05:47:29;;;;;;;7.55;3.90;;;;;;;;;;4846551;29;20121;-82
2022/06/25 05:49:54;;;;;;;9.32;4.10;;;;;;;;;;4854203;29;20070;-80
2022/06/25 05:52:20;;;;;;;7.22;3.30;;;;;;;;;;4847282;29;20038;-82
2022/06/25 05:54:45;;;;;;;10.20;2.80;;;;;;;;;;4847277;29;20042;-80
2022/06/25 05:57:11;;;;;;;7.65;3.00;;;;;;;;;;4850082;29;20129;-76
2022/06/25 05:59:36;;;;;;;5.70;2.90;;;;;;;;;;4850780;29;20070;-77
2022/06/25 06:02:02;;;;;;;10.40;2.97;;;;;;;;;;4849123;29;20033;-81
2022/06/25 06:04:29;;;;;;;7.38;2.67;;;;;;;;;;4850485;29;20045;-82
2022/06/25 06:06:54;;;;;;;5.32;2.40;;;;;;;;;;4832924;29;20049;-80
2022/06/25 06:09:20;;;;;;;6.15;2.33;;;;;;;;;;4848076;29;20034;-82
2022/06/25 06:11:45;;;;;;;6.50;2.88;;;;;;;;;;4853176;29;20049;-79
2022/06/25 06:14:11;;;;;;;9.18;2.50;;;;;;;;;;4832133;29;20054;-80
2022/06/25 06:16:36;;;;;;;7.97;3.00;;;;;;;;;;4849770;29;20105;-80
2022/06/25 06:19:02;;;;;;;8.20;3.47;;;;;;;;;;4832425;29;20063;-81
2022/06/25 06:21:29;;;;;;;7.40;3.20;;;;;;;;;;4835504;29;20049;-83
2022/06/25 06:23:55;;;;;;;13.80;3.58;;;;;;;;;;4852596;29;20049;-81
2022/06/25 06:26:20;;;;;;;5.47;4.00;;;;;;;;;;4823108;29;20034;-83
2022/06/25 06:28:47;;;;;;;6.70;4.47;;;;;;;;;;4853227;29;20033;-78
2022/06/25 06:31:12;;;;;;;6.13;4.53;;;;;;;;;;4850337;29;20045;-80
2022/06/25 06:33:38;;;;;;;8.88;4.43;;;;;;;;;;4850095;29;20047;-82
2022/06/25 06:36:03;;;;;;;7.25;4.75;;;;;;;;;;4853843;29;20046;-80
2022/06/25 06:38:29;;;;;;;7.85;4.10;;;;;;;;;;4838487;29;20034;-82
2022/06/25 06:40:54;;;;;;;4.60;3.50;;;;;;;;;;4854810;29;20085;-81
2022/06/25 06:43:20;;;;;;;4.20;3.80;;;;;;;;;;4847385;29;20041;-81
2022/06/25 06:45:45;;;;;;;11.23;4.35;;;;;;;;;;4828631;29;20042;-81
2022/06/25 06:48:11;;;;;;;8.82;3.65;;;;;;;;;;4847493;29;20082;-80
2022/06/25 06:50:36;;;;;;;6.60;3.80;;;;;;;;;;4850215;29;20125;-81
2022/06/25 06:53:01;;;;;;;4.80;3.80;;;;;;;;;;4850912;29;20029;-81
2022/06/25 06:55:27;;;;;;;9.45;4.10;;;;;;;;;;4851826;29;20049;-82
2022/06/25 06:57:52;;;;;;;8.05;4.82;;;;;;;;;;4847742;29;20151;-81
2022/06/25 07:00:18;;;;;;;6.07;4.55;;;;;;;;;;4845202;29;20403;-79
2022/06/25 07:02:43;;;;;;;7.43;4.80;;;;;;;;;;4843526;29;20062;-79
2022/06/25 07:05:09;;;;;;;10.52;5.00;;;;;;;;;;4849986;29;20105;-82
2022/06/25 07:07:34;;;;;;;8.65;4.63;;;;;;;;;;4846525;29;20542;-82
2022/06/25 07:10:00;;;;;;;7.97;4.90;;;;;;;;;;4847116;29;20261;-79
2022/06/25 07:12:25;;;;;;;7.78;5.28;;;;;;;;;;4848561;29;20079;-80
2022/06/25 07:14:50;;;;;;;8.57;5.35;;;;;;;;;;4842731;29;20158;-79
2022/06/25 07:17:16;;;;;;;9.30;5.13;;;;;;;;;;4843791;29;20110;-81
2022/06/25 07:19:41;;;;;;;7.95;5.40;;;;;;;;;;4851956;29;20038;-77
2022/06/25 07:22:07;;;;;;;7.07;5.20;;;;;;;;;;4833282;29;20103;-81
2022/06/25 07:24:32;;;;;;;6.53;5.35;;;;;;;;;;4845289;29;20049;-83
2022/06/25 07:26:57;;;;;;;7.05;5.28;;;;;;;;;;4843099;29;20038;-81
2022/06/25 07:29:23;;;;;;;7.97;5.50;;;;;;;;;;4827065;29;20042;-81
2022/06/25 07:31:49;;;;;;;6.70;5.10;;;;;;;;;;4847346;29;20029;-80
2022/06/25 07:34:16;;;;;;;8.25;5.60;;;;;;;;;;4825699;29;20041;-82
2022/06/25 07:36:41;;;;;;;7.57;5.03;;;;;;;;;;4845603;29;20041;-82
2022/06/25 07:39:08;;;;;;;8.13;4.85;;;;;;;;;;4845461;29;20050;-78
2022/06/25 07:41:33;;;;;;;5.63;4.85;;;;;;;;;;4845100;29;20042;-81
2022/06/25 07:43:59;;;;;;;7.90;4.93;;;;;;;;;;4844515;29;20112;-80
2022/06/25 07:46:24;;;;;;;7.60;4.97;;;;;;;;;;4842923;29;20102;-83
2022/06/25 07:48:50;;;;;;;10.68;4.53;;;;;;;;;;4845538;29;20060;-80
2022/06/25 07:53:59;;;;;;;6.82;5.07;;;;;;;;;;4845067;29;20522;-78
2022/06/25 07:56:24;;;;;;;7.35;4.80;;;;;;;;;;4847413;29;20050;-82
2022/06/25 07:58:50;;;;;;;7.88;5.10;;;;;;;;;;4844840;29;20398;-82
2022/06/25 08:01:15;;;;;;;7.82;4.72;;;;;;;;;;4829559;29;20533;-82
2022/06/25 08:03:41;;;;;;;7.05;4.50;;;;;;;;;;4851949;29;20038;-82
2022/06/25 08:06:07;;;;;;;5.63;4.40;;;;;;;;;;4842875;29;20062;-81
2022/06/25 08:08:32;;;;;;;8.35;5.00;;;;;;;;;;4846572;29;20037;-81
2022/06/25 08:10:58;;;;;;;8.48;5.10;;;;;;;;;;4846246;29;20045;-79
2022/06/25 08:13:24;;;;;;;9.27;4.90;;;;;;;;;;4842125;29;20042;-81
2022/06/25 08:15:50;;;;;;;5.63;5.00;;;;;;;;;;4847120;29;20033;-76
2022/06/25 08:18:16;;;;;;;8.18;5.30;;;;;;;;;;4844722;29;20046;-76
2022/06/25 08:20:41;;;;;;;8.07;4.57;;;;;;;;;;4849452;29;20045;-79
2022/06/25 08:23:07;;;;;;;10.35;4.38;;;;;;;;;;4846124;29;20037;-80
2022/06/25 08:25:33;;;;;;;4.65;4.25;;;;;;;;;;4853029;29;20094;-82
2022/06/25 08:27:59;;;;;;;10.15;4.32;;;;;;;;;;4831386;29;20534;-79
2022/06/25 08:30:25;;;;;;;6.50;4.25;;;;;;;;;;4851116;29;20042;-78
2022/06/25 08:32:51;;;;;;;7.40;4.40;;;;;;;;;;4829878;29;20042;-76
2022/06/25 08:35:17;;;;;;;4.93;4.07;;;;;;;;;;4849167;29;20029;-82
2022/06/25 08:37:47;;;;;;;6.55;4.70;;;;;;;;;;4845620;29;20067;-82
2022/06/25 08:40:14;;;;;;;5.75;4.70;;;;;;;;;;4846280;29;20077;-82
2022/06/25 08:42:39;;;;;;;7.82;4.72;;;;;;;;;;4845267;29;20097;-82
2022/06/25 08:45:06;;;;;;;10.30;4.90;;;;;;;;;;4847036;29;20109;-80
2022/06/25 08:47:31;;;;;;;6.22;4.45;;;;;;;;;;4842852;29;20101;-80
2022/06/25 08:49:58;;;;;;;6.32;4.55;;;;;;;;;;4831228;29;20021;-80
2022/06/25 08:52:28;;;;;;;5.18;3.97;;;;;;;;;;4843302;29;20046;-82
2022/06/25 08:54:54;;;;;;;5.82;3.90;;;;;;;;;;4829443;29;20034;-82
2022/06/25 08:57:20;;;;;;;5.13;3.63;;;;;;;;;;4825673;29;20571;-77
2022/06/25 08:59:45;;;;;;;7.70;3.60;;;;;;;;;;4848489;29;20046;-81
2022/06/25 09:02:11;;;;;;;7.15;3.70;;;;;;;;;;4830039;29;20038;-81
2022/06/25 09:04:36;;;;;;;4.97;3.20;;;;;;;;;;4829836;29;20470;-82
2022/06/25 09:07:15;;;;;;;9.27;4.07;;;;;;;;;;4846082;29;20632;-81
2022/06/25 09:09:51;;;;;;;10.52;3.80;;;;;;;;;;4846013;29;20053;-79
2022/06/25 09:12:18;;;;;;;6.18;4.03;;;;;;;;;;4845547;29;20045;-76
2022/06/25 09:14:44;;;;;;;12.10;4.10;;;;;;;;;;4846231;29;20098;-81
2022/06/25 09:17:12;;;;;;;5.53;3.72;;;;;;;;;;4848239;29;20030;-82
2022/06/25 09:19:43;;;;;;;5.95;3.88;;;;;;;;;;4848081;29;20592;-81
2022/06/25 09:22:14;;;;;;;4.47;3.70;;;;;;;;;;4844591;29;20057;-81
2022/06/25 09:24:47;;;;;;;6.88;3.75;;;;;;;;;;4843250;29;20046;-80
2022/06/25 09:27:17;;;;;;;10.52;4.03;;;;;;;;;;4851377;29;20057;-81
2022/06/25 09:29:45;;;;;;;8.52;4.57;;;;;;;;;;4850269;29;20048;-82
2022/06/25 09:32:11;;;;;;;8.90;3.60;;;;;;;;;;4847605;29;20113;-81
2022/06/25 09:34:38;;;;;;;6.20;3.38;;;;;;;;;;4853054;29;20118;-79
2022/06/25 09:37:26;;;;;;;7.10;3.97;;;;;;;;;;4825887;29;20528;-79
2022/06/25 09:39:54;;;;;;;6.00;3.58;;;;;;;;;;4842641;29;20034;-81
2022/06/25 09:42:37;;;;;;;4.88;3.40;;;;;;;;;;4840722;29;20439;-84
2022/06/25 09:45:11;;;;;;;5.32;3.55;;;;;;;;;;4838826;29;20042;-84
2022/06/25 09:47:39;;;;;;;8.77;3.47;;;;;;;;;;4841635;29;20037;-81
2022/06/25 09:50:16;;;;;;;6.57;3.15;;;;;;;;;;4848174;29;20475;-75
2022/06/25 09:53:01;;;;;;;5.55;3.40;;;;;;;;;;4843904;29;20021;-82
2022/06/25 09:55:37;;;;;;;4.72;2.70;;;;;;;;;;4845288;29;20154;-82
2022/06/25 09:58:03;;;;;;;3.80;2.83;;;;;;;;;;4845850;29;20046;-81
2022/06/25 10:00:30;;;;;;;8.07;2.72;;;;;;;;;;4842609;29;20482;-84
2022/06/25 10:02:58;;;;;;;5.03;2.72;;;;;;;;;;4844521;29;20141;-81
2022/06/25 10:05:29;;;;;;;2.83;2.42;;;;;;;;;;4847305;29;20140;-76
2022/06/25 10:08:00;;;;;;;3.45;2.47;;;;;;;;;;4845291;29;20030;-74
2022/06/25 10:10:31;;;;;;;3.87;2.47;;;;;;;;;;4850942;29;20048;-79
2022/06/25 10:12:56;;;;;;;6.15;2.78;;;;;;;;;;4851028;29;20037;-80
2022/06/25 10:15:23;;;;;;;3.30;2.20;;;;;;;;;;4842819;29;20086;-83
2022/06/25 10:17:51;;;;;;;3.08;2.22;;;;;;;;;;4843601;29;20490;-82
2022/06/25 10:20:18;;;;;;;3.55;2.20;;;;;;;;;;4841682;29;20038;-83
2022/06/25 10:22:45;;;;;;;3.85;2.13;;;;;;;;;;4827378;29;20033;-81
2022/06/25 10:25:14;;;;;;;4.45;2.17;;;;;;;;;;4847689;29;20506;-83
2022/06/25 10:27:46;;;;;;;3.38;2.17;;;;;;;;;;4847182;29;20042;-79
2022/06/25 10:30:14;;;;;;;4.82;1.85;;;;;;;;;;4843112;29;20248;-82
2022/06/25 10:32:52;;;;;;;5.15;2.25;;;;;;;;;;4850382;29;20046;-80
2022/06/25 10:35:32;;;;;;;4.53;1.92;;;;;;;;;;4852325;29;20071;-82
2022/06/25 10:38:07;;;;;;;6.10;1.95;;;;;;;;;;4852938;29;20033;-83
2022/06/25 10:40:44;;;;;;;3.55;2.17;;;;;;;;;;4852844;29;20038;-84
2022/06/25 10:43:34;;;;;;;8.02;2.38;;;;;;;;;;4852205;29;20038;-83
2022/06/25 10:46:15;;;;;;;3.28;1.98;;;;;;;;;;4855707;29;20038;-83
2022/06/25 10:48:49;;;;;;;2.50;1.98;;;;;;;;;;4847844;29;21115;-81
2022/06/25 10:51:31;;;;;;;3.35;1.90;;;;;;;;;;4855536;29;20049;-81
2022/06/25 10:53:58;;;;;;;2.80;1.58;;;;;;;;;;4848592;29;20049;-83
2022/06/25 10:56:24;;;;;;;4.63;1.70;;;;;;;;;;4836094;29;20049;-83
2022/06/25 10:58:51;;;;;;;1.98;1.50;;;;;;;;;;4839797;29;20050;-82
2022/06/25 11:01:26;;;;;;;2.35;1.67;;;;;;;;;;4845719;29;20092;-82
2022/06/25 11:03:55;;;;;;;4.45;1.63;;;;;;;;;;4843367;29;20514;-80
2022/06/25 11:06:35;;;;;;;3.20;1.60;;;;;;;;;;4828967;29;20376;-80
2022/06/25 11:09:10;;;;;;;2.53;1.60;;;;;;;;;;4845350;29;20117;-81
2022/06/25 11:11:36;;;;;;;4.18;1.65;;;;;;;;;;4844814;29;20042;-80
2022/06/25 11:14:11;;;;;;;3.38;1.75;;;;;;;;;;4848560;29;20030;-81
2022/06/25 11:16:36;;;;;;;1.95;1.40;;;;;;;;;;4831116;29;20045;-82
2022/06/25 11:19:02;;;;;;;4.60;1.50;;;;;;;;;;4844301;29;20394;-79
2022/06/25 11:21:38;;;;;;;4.10;1.70;;;;;;;;;;4848069;29;20046;-80
2022/06/25 11:24:16;;;;;;;3.88;1.60;;;;;;;;;;4846515;29;20423;-80
2022/06/25 11:29:37;;;;;;;2.90;1.52;;;;;;;;;;4847293;29;20064;-77
2022/06/25 11:32:04;;;;;;;2.87;1.37;;;;;;;;;;4849157;29;20102;-83
2022/06/25 11:34:29;;;;;;;4.18;1.40;;;;;;;;;;4835446;29;20297;-84
2022/06/25 11:37:12;;;;;;;1.95;1.17;;;;;;;;;;4849323;29;20775;-82
2022/06/25 11:39:39;;;;;;;2.13;1.45;;;;;;;;;;4829565;29;20042;-82
2022/06/25 11:42:10;;;;;;;2.42;1.42;;;;;;;;;;4848271;29;20050;-83
2022/06/25 11:44:39;;;;;;;2.60;1.38;;;;;;;;;;4847240;29;20532;-82
2022/06/25 11:47:05;;;;;;;3.63;1.50;;;;;;;;;;4849624;29;20050;-78
2022/06/25 11:49:42;;;;;;;3.20;1.30;;;;;;;;;;4846363;29;20106;-83
2022/06/25 11:52:09;;;;;;;4.38;1.30;;;;;;;;;;4846593;29;20034;-77
2022/06/25 11:54:36;;;;;;;4.32;1.30;;;;;;;;;;4834199;29;20118;-79
2022/06/25 11:57:04;;;;;;;2.88;1.50;;;;;;;;;;4844360;29;20034;-81
2022/06/25 11:59:33;;;;;;;4.15;1.27;;;;;;;;;;4850817;29;20037;-82
2022/06/25 12:01:59;;;;;;;2.30;1.38;;;;;;;;;;4847240;29;20375;-83
2022/06/25 12:04:28;;;;;;;2.45;1.23;;;;;;;;;;4844575;29;20038;-76
2022/06/25 12:06:54;;;;;;;1.95;1.30;;;;;;;;;;4845359;29;20038;-77
2022/06/25 12:09:20;;;;;;;3.40;1.23;;;;;;;;;;4834246;29;20096;-82
2022/06/25 12:11:55;;;;;;;3.03;1.10;;;;;;;;;;4849269;29;20097;-83
2022/06/25 12:14:31;;;;;;;2.40;1.40;;;;;;;;;;4845723;29;20093;-78
2022/06/25 12:16:58;;;;;;;1.95;1.20;;;;;;;;;;4848407;29;20045;-84
2022/06/25 12:19:24;;;;;;;1.88;1.25;;;;;;;;;;4845727;29;20038;-81
2022/06/25 12:21:49;;;;;;;1.42;1.23;;;;;;;;;;4843090;29;20057;-76
2022/06/25 12:24:19;;;;;;;4.38;1.35;;;;;;;;;;4841682;29;20078;-78
2022/06/25 12:26:52;;;;;;;2.20;1.48;;;;;;;;;;4836350;29;20507;-78
2022/06/25 12:29:19;;;;;;;4.88;1.40;;;;;;;;;;4835732;29;20563;-79
2022/06/25 12:32:01;;;;;;;2.60;1.30;;;;;;;;;;4843845;29;20033;-78
2022/06/25 12:34:27;;;;;;;4.60;1.50;;;;;;;;;;4843742;29;20056;-79
2022/06/25 12:36:54;;;;;;;3.08;1.38;;;;;;;;;;4848989;29;20038;-78
2022/06/25 12:39:31;;;;;;;5.03;1.45;;;;;;;;;;4832409;29;20046;-78
2022/06/25 12:42:09;;;;;;;3.25;1.00;;;;;;;;;;4851639;29;20046;-78
2022/06/25 12:44:37;;;;;;;1.38;1.10;;;;;;;;;;4854020;29;20050;-79
2022/06/25 12:47:07;;;;;;;3.78;1.10;;;;;;;;;;4838598;29;20482;-80
2022/06/25 12:49:50;;;;;;;2.20;1.52;;;;;;;;;;4828307;29;20032;-78
2022/06/25 12:52:19;;;;;;;3.63;1.33;;;;;;;;;;4843944;29;20390;-77
2022/06/25 12:54:46;;;;;;;4.70;1.27;;;;;;;;;;4846849;29;20037;-80
2022/06/25 12:57:25;;;;;;;3.45;1.02;;;;;;;;;;4848402;29;20045;-80
2022/06/25 12:59:52;;;;;;;1.40;1.00;;;;;;;;;;4845330;29;20041;-79
2022/06/25 13:02:18;;;;;;;3.38;1.23;;;;;;;;;;4846635;29;20050;-76
2022/06/25 13:04:43;;;;;;;3.08;1.10;;;;;;;;;;4841415;29;20042;-75
2022/06/25 13:07:11;;;;;;;2.28;0.98;;;;;;;;;;4827385;29;20068;-83
2022/06/25 13:09:38;;;;;;;2.35;1.10;;;;;;;;;;4847089;29;20511;-79
2022/06/25 13:12:04;;;;;;;1.70;0.90;;;;;;;;;;4830755;29;20066;-81
2022/06/25 13:14:29;;;;;;;3.03;1.30;;;;;;;;;;4843338;29;20134;-77
2022/06/25 13:16:57;;;;;;;1.45;0.90;;;;;;;;;;4849815;29;20506;-80
2022/06/25 13:19:24;;;;;;;3.05;1.48;;;;;;;;;;4833748;29;20030;-79
2022/06/25 13:21:50;;;;;;;2.00;1.13;;;;;;;;;;4848260;29;20052;-77
2022/06/25 13:24:15;;;;;;;1.77;1.15;;;;;;;;;;4844091;29;20049;-79
2022/06/25 13:26:42;;;;;;;2.95;1.00;;;;;;;;;;4844511;29;20049;-79
2022/06/25 13:29:07;;;;;;;4.55;1.13;;;;;;;;;;4826060;29;20046;-79
2022/06/25 13:31:33;;;;;;;1.40;1.13;;;;;;;;;;4845154;29;20078;-79
2022/06/25 13:33:58;;;;;;;1.80;1.10;;;;;;;;;;4848382;29;20034;-80
2022/06/25 13:36:24;;;;;;;1.58;1.20;;;;;;;;;;4846646;29;20049;-80
2022/06/25 13:38:49;;;;;;;2.28;0.90;;;;;;;;;;4842255;29;20046;-80
2022/06/25 13:41:14;;;;;;;1.73;1.08;;;;;;;;;;4829407;29;20098;-81
2022/06/25 13:43:40;;;;;;;1.40;1.00;;;;;;;;;;4842553;29;20493;-76
2022/06/25 13:46:05;;;;;;;2.08;1.05;;;;;;;;;;4832757;29;20038;-77
2022/06/25 13:48:31;;;;;;;2.03;1.00;;;;;;;;;;4840348;29;20038;-79
2022/06/25 13:50:56;;;;;;;1.85;1.05;;;;;;;;;;4839959;29;20159;-79
2022/06/25 13:53:22;;;;;;;1.10;1.00;;;;;;;;;;4844071;29;20048;-77
2022/06/25 13:55:48;;;;;;;2.85;1.10;;;;;;;;;;4842192;29;20042;-78
2022/06/25 13:58:13;;;;;;;1.45;1.08;;;;;;;;;;4843815;29;20487;-81
2022/06/25 14:00:39;;;;;;;2.17;1.08;;;;;;;;;;4822573;29;20050;-78
2022/06/25 14:03:04;;;;;;;1.88;1.08;;;;;;;;;;4845507;29;20035;-76
2022/06/25 14:05:31;;;;;;;1.58;0.93;;;;;;;;;;4844249;29;20026;-77
2022/06/25 14:07:56;;;;;;;2.33;1.10;;;;;;;;;;4843781;29;20033;-80
2022/06/25 14:10:22;;;;;;;2.15;0.98;;;;;;;;;;4841004;29;20030;-79
2022/06/25 14:12:47;;;;;;;2.17;1.20;;;;;;;;;;4846807;29;20125;-76
2022/06/25 14:15:12;;;;;;;1.73;1.20;;;;;;;;;;4843279;29;20046;-78
2022/06/25 14:17:38;;;;;;;2.28;1.13;;;;;;;;;;4841054;29;20050;-76
2022/06/25 14:20:05;;;;;;;3.67;1.15;;;;;;;;;;4844549;29;20057;-78
2022/06/25 14:22:31;;;;;;;4.55;1.20;;;;;;;;;;4846344;29;20034;-78
2022/06/25 14:27:40;;;;;;;2.13;1.20;;;;;;;;;;4844179;29;20072;-76
2022/06/25 14:30:06;;;;;;;3.55;1.33;;;;;;;;;;4845121;29;20030;-76
2022/06/25 14:32:31;;;;;;;2.17;1.15;;;;;;;;;;4850528;29;20037;-77
2022/06/25 14:34:57;;;;;;;2.47;1.10;;;;;;;;;;4828642;29;20030;-75
2022/06/25 14:42:51;;;;;;;3.45;1.10;;;;;;;;;;4845384;29;20410;-75
2022/06/25 14:45:17;;;;;;;3.35;1.20;;;;;;;;;;4841250;29;20050;-80
2022/06/25 14:47:42;;;;;;;5.22;1.55;;;;;;;;;;4848681;29;20562;-77
2022/06/25 14:50:09;;;;;;;2.90;1.70;;;;;;;;;;4848243;29;20045;-78
2022/06/25 14:52:34;;;;;;;1.83;1.13;;;;;;;;;;4848690;29;20028;-76
2022/06/25 14:55:01;;;;;;;3.45;1.17;;;;;;;;;;4828625;29;20604;-77
2022/06/25 14:57:27;;;;;;;1.83;1.50;;;;;;;;;;4850398;29;20106;-80
2022/06/25 14:59:52;;;;;;;1.60;1.00;;;;;;;;;;4847866;29;20045;-80